Time,TemperatureF,DewpointF,PressureIn,WindDirection,WindDirectionDegrees,WindSpeedMPH,WindSpeedGustMPH,Humidity,HourlyPrecipIn,Conditions,Clouds,dailyrainin,SoftwareType,DateUTC
2013-02-01 10:33:00,2.0,-8.0,30.04,WNW,289,8.0,18.0,62,0.00,,,0.00,,2013-02-01 16:33:00,
2013-02-01 10:43:00,2.0,-8.0,30.05,WNW,301,8.0,16.0,62,0.00,,,0.00,,2013-02-01 16:43:00,
2013-02-01 10:52:00,2.0,-8.0,30.05,WNW,301,8.0,16.0,62,0.00,,,0.00,,2013-02-01 16:52:00,
2013-02-01 11:02:00,3.0,-7.0,30.05,WNW,289,7.0,12.0,61,0.00,,,0.00,,2013-02-01 17:02:00,
2013-02-01 11:11:00,3.0,-8.0,30.05,WNW,300,7.0,13.0,60,0.00,,,0.00,,2013-02-01 17:11:00,
2013-02-01 11:22:00,3.0,-8.0,30.05,WNW,300,7.0,13.0,60,0.00,,,0.00,,2013-02-01 17:22:00,
2013-02-01 11:32:00,4.0,-7.0,30.04,NW,311,7.0,13.0,59,0.00,,,0.00,,2013-02-01 17:32:00,
2013-02-01 11:42:00,4.0,-7.0,30.04,NW,311,7.0,13.0,59,0.00,,,0.00,,2013-02-01 17:42:00,
2013-02-01 11:52:00,4.0,-7.0,30.04,WNW,284,9.0,18.0,59,0.00,,,0.00,,2013-02-01 17:52:00,
2013-02-01 12:02:00,4.0,-7.0,30.04,West,275,11.0,19.0,60,0.00,,,0.00,,2013-02-01 18:02:00,
2013-02-01 12:12:00,4.0,-7.0,30.04,West,275,11.0,19.0,60,0.00,,,0.00,,2013-02-01 18:12:00,
2013-02-01 12:22:00,4.0,-7.0,30.03,WNW,287,8.0,13.0,58,0.00,,,0.00,,2013-02-01 18:22:00,
2013-02-01 12:32:00,4.0,-7.0,30.03,West,271,9.0,17.0,58,0.00,,,0.00,,2013-02-01 18:32:00,
2013-02-01 12:42:00,4.0,-7.0,30.03,West,271,9.0,17.0,58,0.00,,,0.00,,2013-02-01 18:42:00,
2013-02-01 12:53:00,4.0,-7.0,30.03,West,281,9.0,17.0,58,0.00,,,0.00,,2013-02-01 18:53:00,
2013-02-01 13:02:00,4.0,-7.0,30.03,West,281,9.0,17.0,58,0.00,,,0.00,,2013-02-01 19:02:00,
2013-02-01 13:11:00,4.0,-7.0,30.03,West,281,9.0,17.0,58,0.00,,,0.00,,2013-02-01 19:11:00,
2013-02-01 13:21:00,4.0,-7.0,30.01,West,276,8.0,14.0,58,0.00,,,0.00,,2013-02-01 19:21:00,
2013-02-01 13:32:00,5.0,-7.0,30.01,West,277,7.0,13.0,57,0.00,,,0.00,,2013-02-01 19:32:00,
2013-02-01 13:42:00,5.0,-7.0,30.01,West,277,7.0,13.0,57,0.00,,,0.00,,2013-02-01 19:42:00,
2013-02-01 13:52:00,4.0,-7.0,30.01,West,273,9.0,16.0,58,0.00,,,0.00,,2013-02-01 19:52:00,
2013-02-01 14:02:00,3.0,-9.0,30.01,West,280,12.0,21.0,57,0.00,,,0.00,,2013-02-01 20:02:00,
2013-02-01 14:11:00,4.0,-8.0,30.01,West,279,11.0,18.0,57,0.00,,,0.00,,2013-02-01 20:11:00,
2013-02-01 14:21:00,4.0,-8.0,30.01,West,279,11.0,18.0,57,0.00,,,0.00,,2013-02-01 20:21:00,
2013-02-01 14:31:00,4.0,-8.0,30.01,WNW,284,9.0,20.0,56,0.00,,,0.00,,2013-02-01 20:31:00,
2013-02-01 14:41:00,4.0,-8.0,30.01,WNW,284,9.0,20.0,56,0.00,,,0.00,,2013-02-01 20:41:00,
2013-02-01 14:52:00,4.0,-8.0,30.01,WNW,284,9.0,20.0,56,0.00,,,0.00,,2013-02-01 20:52:00,
2013-02-01 15:02:00,4.0,-8.0,30.01,WNW,297,8.0,16.0,56,0.00,,,0.00,,2013-02-01 21:02:00,
2013-02-01 15:11:00,4.0,-8.0,30.01,WNW,297,8.0,16.0,56,0.00,,,0.00,,2013-02-01 21:11:00,
2013-02-01 15:21:00,4.0,-8.0,30.00,WNW,282,10.0,16.0,56,0.00,,,0.00,,2013-02-01 21:21:00,
2013-02-01 15:32:00,3.0,-9.0,30.01,WNW,293,10.0,14.0,56,0.00,,,0.00,,2013-02-01 21:32:00,
2013-02-01 15:41:00,3.0,-9.0,30.01,WNW,293,10.0,14.0,56,0.00,,,0.00,,2013-02-01 21:41:00,
2013-02-01 15:52:00,3.0,-9.0,30.01,WNW,286,9.0,17.0,55,0.00,,,0.00,,2013-02-01 21:52:00,
2013-02-01 16:02:00,3.0,-9.0,30.00,WNW,288,10.0,16.0,55,0.00,,,0.00,,2013-02-01 22:02:00,
2013-02-01 16:11:00,3.0,-9.0,30.00,WNW,288,10.0,16.0,55,0.00,,,0.00,,2013-02-01 22:11:00,
2013-02-01 16:21:00,3.0,-9.0,29.99,WNW,289,8.0,16.0,55,0.00,,,0.00,,2013-02-01 22:21:00,
2013-02-01 16:32:00,3.0,-10.0,29.99,West,278,8.0,18.0,54,0.00,,,0.00,,2013-02-01 22:32:00,
2013-02-01 16:42:00,3.0,-10.0,29.99,West,278,8.0,18.0,54,0.00,,,0.00,,2013-02-01 22:42:00,
2013-02-01 16:52:00,2.0,-10.0,29.99,West,268,8.0,18.0,55,0.00,,,0.00,,2013-02-01 22:52:00,
2013-02-01 17:01:00,2.0,-10.0,29.99,West,278,8.0,20.0,55,0.00,,,0.00,,2013-02-01 23:01:00,
2013-02-01 17:11:00,2.0,-10.0,29.99,West,278,8.0,20.0,55,0.00,,,0.00,,2013-02-01 23:11:00,
2013-02-01 17:21:00,1.0,-11.0,29.99,West,278,10.0,20.0,55,0.00,,,0.00,,2013-02-01 23:21:00,
2013-02-01 17:31:00,1.0,-11.0,29.99,West,275,9.0,17.0,55,0.00,,,0.00,,2013-02-01 23:31:00,
2013-02-01 17:41:00,1.0,-11.0,29.99,West,275,9.0,17.0,55,0.00,,,0.00,,2013-02-01 23:41:00,
2013-02-01 17:52:00,1.0,-12.0,29.99,West,281,10.0,20.0,54,0.00,,,0.00,,2013-02-01 23:52:00,
2013-02-01 18:02:00,2.0,-11.0,30.00,West,281,11.0,20.0,54,0.00,,,0.00,,2013-02-02 00:02:00,
2013-02-01 18:11:00,2.0,-11.0,30.00,West,281,11.0,20.0,54,0.00,,,0.00,,2013-02-02 00:11:00,
2013-02-01 18:21:00,2.0,-11.0,30.00,West,279,11.0,19.0,54,0.00,,,0.00,,2013-02-02 00:21:00,
2013-02-01 18:32:00,2.0,-10.0,29.99,West,277,8.0,18.0,55,0.00,,,0.00,,2013-02-02 00:32:00,
2013-02-01 18:42:00,2.0,-10.0,29.99,West,277,8.0,18.0,55,0.00,,,0.00,,2013-02-02 00:42:00,
2013-02-01 18:52:00,2.0,-10.0,29.99,West,277,8.0,18.0,55,0.00,,,0.00,,2013-02-02 00:52:00,
2013-02-01 19:02:00,2.0,-11.0,30.00,WNW,293,10.0,19.0,53,0.00,,,0.00,,2013-02-02 01:02:00,
2013-02-01 19:11:00,2.0,-11.0,30.00,WNW,293,10.0,19.0,53,0.00,,,0.00,,2013-02-02 01:11:00,
2013-02-01 19:21:00,2.0,-11.0,30.00,WNW,293,10.0,19.0,53,0.00,,,0.00,,2013-02-02 01:21:00,
2013-02-01 19:32:00,2.0,-12.0,29.99,WNW,292,11.0,20.0,52,0.00,,,0.00,,2013-02-02 01:32:00,
2013-02-01 19:41:00,2.0,-12.0,29.99,WNW,292,11.0,20.0,52,0.00,,,0.00,,2013-02-02 01:41:00,
2013-02-01 19:52:00,2.0,-12.0,29.99,WNW,294,11.0,18.0,52,0.00,,,0.00,,2013-02-02 01:52:00,
2013-02-01 20:01:00,2.0,-12.0,29.99,WNW,294,11.0,18.0,52,0.00,,,0.00,,2013-02-02 02:01:00,
2013-02-01 20:11:00,2.0,-12.0,29.99,WNW,294,11.0,18.0,52,0.00,,,0.00,,2013-02-02 02:11:00,
2013-02-01 20:21:00,2.0,-12.0,29.99,WNW,294,11.0,18.0,52,0.00,,,0.00,,2013-02-02 02:21:00,
2013-02-01 20:32:00,2.0,-11.0,29.99,NW,311,9.0,17.0,54,0.00,,,0.00,,2013-02-02 02:32:00,
2013-02-01 20:42:00,2.0,-11.0,29.99,NW,311,9.0,17.0,54,0.00,,,0.00,,2013-02-02 02:42:00,
2013-02-01 20:51:00,3.0,-9.0,29.99,NW,308,8.0,13.0,56,0.00,,,0.00,,2013-02-02 02:51:00,
2013-02-01 20:52:00,2.0,-10.0,29.99,NW,308,8.0,13.0,55,0.00,,,0.00,,2013-02-02 02:52:00,
2013-02-01 21:02:00,2.0,-10.0,29.99,NW,308,8.0,13.0,55,0.00,,,0.00,,2013-02-02 03:02:00,
2013-02-01 21:11:00,3.0,-9.0,29.99,NW,308,8.0,13.0,56,0.00,,,0.00,,2013-02-02 03:11:00,
2013-02-01 21:21:00,3.0,-9.0,29.99,NW,308,8.0,13.0,56,0.00,,,0.00,,2013-02-02 03:21:00,
2013-02-01 21:32:00,3.0,-9.0,29.99,NW,308,8.0,13.0,56,0.00,,,0.00,,2013-02-02 03:32:00,
2013-02-01 21:42:00,3.0,-9.0,29.99,NW,308,8.0,13.0,56,0.00,,,0.00,,2013-02-02 03:42:00,